Time;durP1;ratioP1;P1;durP2;ratioP2;P2;SDS_P1;SDS_P2;PMS_P1;PMS_P2;Temp;Humidity;BMP_temperature;BMP_pressure;BME280_temperature;BME280_humidity;BME280_pressure;Samples;Min_cycle;Max_cycle;Signal;HPM_P1;HPM_P2
2022/07/08 00:01:42;;;;;;;3.10;1.50;;;13.60;99.90;;;;;;5038065;28;20487;-90
2022/07/08 00:04:11;;;;;;;1.60;1.50;;;14.40;99.90;;;;;;5068906;28;20073;-90
2022/07/08 00:06:37;;;;;;;1.67;1.33;;;14.40;99.90;;;;;;5037223;28;20495;-90
2022/07/08 00:09:13;;;;;;;4.73;2.67;;;14.40;99.90;;;;;;5038036;28;20037;-90
2022/07/08 00:11:40;;;;;;;1.27;1.17;;;14.40;99.90;;;;;;5038525;28;20398;-90
2022/07/08 00:14:14;;;;;;;2.35;1.50;;;14.40;99.90;;;;;;5070768;28;20045;-90
2022/07/08 00:16:43;;;;;;;2.53;1.30;;;14.40;99.90;;;;;;5037206;28;20143;-90
2022/07/08 00:19:14;;;;;;;2.05;1.10;;;14.40;99.90;;;;;;5054742;28;20059;-90
2022/07/08 00:21:53;;;;;;;4.13;1.58;;;14.40;99.90;;;;;;5043661;28;20049;-90
2022/07/08 00:24:19;;;;;;;1.92;1.40;;;14.40;99.90;;;;;;5023336;28;20133;-90
2022/07/08 00:26:48;;;;;;;2.58;1.77;;;14.40;99.90;;;;;;5053348;28;20040;-90
2022/07/08 00:29:42;;;;;;;;;;;;;;;;;;;;;
2022/07/08 00:32:08;;;;;;;1.55;1.45;;;13.70;99.90;;;;;;5054098;28;20036;-90
2022/07/08 00:34:39;;;;;;;4.00;2.42;;;14.40;99.90;;;;;;5037233;28;20044;-90
2022/07/08 00:37:10;;;;;;;5.15;1.90;;;14.20;99.90;;;;;;5038067;28;20041;-90
2022/07/08 00:39:40;;;;;;;2.72;1.70;;;14.30;99.90;;;;;;5037588;28;20430;-90
2022/07/08 00:42:06;;;;;;;4.63;2.53;;;14.30;99.90;;;;;;5038615;28;20056;-90
2022/07/08 00:44:37;;;;;;;1.77;1.58;;;14.30;99.90;;;;;;5037933;28;20077;-90
2022/07/08 00:47:05;;;;;;;3.65;1.90;;;14.40;99.90;;;;;;5037029;28;20124;-90
2022/07/08 00:49:31;;;;;;;5.30;1.63;;;14.30;99.90;;;;;;5020656;28;20061;-90
2022/07/08 00:52:00;;;;;;;2.72;2.25;;;13.90;99.90;;;;;;5021121;28;20389;-90
2022/07/08 00:54:50;;;;;;;5.97;1.70;;;14.30;99.90;;;;;;5037776;28;20052;-92
2022/07/08 00:57:15;;;;;;;2.22;1.25;;;14.30;99.90;;;;;;5042849;28;20056;-91
2022/07/08 00:59:42;;;;;;;2.43;1.27;;;14.30;99.90;;;;;;5034235;28;20053;-91
2022/07/08 01:02:15;;;;;;;2.50;2.10;;;14.30;99.90;;;;;;5037368;28;20291;-91
2022/07/08 01:04:51;;;;;;;5.03;1.60;;;14.20;99.90;;;;;;5036819;28;20052;-90
2022/07/08 01:07:21;;;;;;;3.42;1.83;;;14.30;99.90;;;;;;5037816;28;20102;-91
2022/07/08 01:09:51;;;;;;;3.40;1.60;;;14.20;99.90;;;;;;5037393;28;20045;-90
2022/07/08 01:12:22;;;;;;;5.30;1.95;;;14.20;99.90;;;;;;5024184;28;20510;-90
2022/07/08 01:14:50;;;;;;;3.17;1.63;;;14.20;99.90;;;;;;5037223;28;20383;-91
2022/07/08 01:17:16;;;;;;;1.40;1.30;;;14.20;99.90;;;;;;5020536;28;20052;-91
2022/07/08 01:19:47;;;;;;;5.28;2.25;;;13.70;99.90;;;;;;5037514;28;20045;-91
2022/07/08 01:22:15;;;;;;;1.63;1.27;;;14.10;99.90;;;;;;5037757;28;20475;-90
2022/07/08 01:25:00;;;;;;;4.63;2.08;;;14.10;99.90;;;;;;5037736;28;20052;-91
2022/07/08 01:27:38;;;;;;;2.25;1.92;;;14.10;99.90;;;;;;5023573;28;20048;-90
2022/07/08 01:30:10;;;;;;;4.35;2.30;;;14.00;99.90;;;;;;5054981;28;20437;-91
2022/07/08 01:32:41;;;;;;;2.17;1.55;;;14.00;99.90;;;;;;5037235;28;20509;-91
2022/07/08 01:35:09;;;;;;;3.38;1.67;;;13.90;99.90;;;;;;5036974;28;20086;-90
2022/07/08 01:37:50;;;;;;;;;;;;;;;;;;;;;
2022/07/08 01:40:25;;;;;;;3.40;1.98;;;13.80;99.90;;;;;;5038833;28;20056;-92
2022/07/08 01:42:58;;;;;;;3.70;1.60;;;13.80;99.90;;;;;;5053614;28;20037;-90
2022/07/08 01:45:24;;;;;;;3.75;2.03;;;13.80;99.90;;;;;;5033622;28;20080;-90
2022/07/08 01:47:50;;;;;;;1.35;1.15;;;13.70;99.90;;;;;;5016610;28;20131;-90
2022/07/08 01:50:22;;;;;;;3.58;1.48;;;13.40;99.90;;;;;;5016703;28;20041;-90
2022/07/08 01:52:52;;;;;;;4.03;2.20;;;13.70;99.90;;;;;;5001053;28;20045;-90
2022/07/08 01:55:21;;;;;;;2.10;1.33;;;13.40;99.90;;;;;;5019314;28;20057;-90
2022/07/08 01:57:47;;;;;;;4.90;1.83;;;13.60;99.90;;;;;;5091967;28;20058;-90
2022/07/08 02:00:21;;;;;;;2.70;1.40;;;13.60;99.90;;;;;;5058772;28;20397;-90
2022/07/08 02:02:50;;;;;;;2.33;1.40;;;13.90;99.90;;;;;;5059353;28;20069;-90
2022/07/08 02:05:18;;;;;;;3.65;1.85;;;13.50;99.90;;;;;;5093096;28;20071;-90
2022/07/08 02:08:15;;;;;;;2.75;1.88;;;13.50;99.90;;;;;;5059406;28;20050;-90
2022/07/08 02:13:24;;;;;;;2.40;1.30;;;13.50;99.90;;;;;;5087345;28;20052;-90
2022/07/08 02:15:50;;;;;;;2.17;1.70;;;13.50;99.90;;;;;;5041392;28;20097;-90
2022/07/08 02:18:19;;;;;;;2.85;1.45;;;13.40;99.90;;;;;;5068417;28;20343;-90
2022/07/08 02:20:58;;;;;;;1.80;1.25;;;13.40;99.90;;;;;;5048181;28;20080;-90
2022/07/08 02:23:28;;;;;;;6.18;1.63;;;13.30;99.90;;;;;;5041396;28;20048;-90
2022/07/08 02:26:04;;;;;;;3.15;1.52;;;13.30;99.90;;;;;;5058454;28;20048;-90
2022/07/08 02:28:30;;;;;;;4.18;2.17;;;13.30;99.90;;;;;;5059424;28;20083;-90
2022/07/08 02:31:00;;;;;;;3.30;2.43;;;13.20;99.90;;;;;;5075665;28;20079;-90
2022/07/08 02:33:29;;;;;;;1.67;1.38;;;13.10;99.90;;;;;;5063448;28;20035;-90
2022/07/08 02:35:58;;;;;;;3.15;1.75;;;13.20;99.90;;;;;;5056461;28;20058;-90
2022/07/08 02:38:27;;;;;;;4.47;2.38;;;13.10;99.90;;;;;;5058357;28;20047;-90
2022/07/08 02:41:00;;;;;;;2.75;1.98;;;13.20;99.90;;;;;;5057115;28;20044;-90
2022/07/08 02:43:46;;;;;;;1.23;1.13;;;13.10;99.90;;;;;;5074799;28;20040;-90
2022/07/08 02:46:22;;;;;;;;;;;;;;;;;;;;;
2022/07/08 02:48:53;;;;;;;5.47;2.92;;;13.10;99.90;;;;;;5075179;28;20511;-91
2022/07/08 02:51:20;;;;;;;4.43;1.58;;;13.10;99.90;;;;;;5058811;28;20048;-90
2022/07/08 02:53:48;;;;;;;2.17;1.40;;;13.10;99.90;;;;;;5075589;28;20051;-92
2022/07/08 02:56:41;;;;;;;4.80;2.00;;;13.10;99.90;;;;;;5041202;28;20056;-90
2022/07/08 02:59:09;;;;;;;4.38;1.75;;;13.10;99.90;;;;;;5058641;28;20127;-90
2022/07/08 03:01:35;;;;;;;3.05;1.65;;;12.50;99.90;;;;;;5092809;28;20044;-90
2022/07/08 03:04:06;;;;;;;4.63;1.90;;;13.10;99.90;;;;;;5059309;28;20048;-90
2022/07/08 03:06:32;;;;;;;2.45;1.38;;;13.10;99.90;;;;;;5026960;28;20145;-91
2022/07/08 03:09:06;;;;;;;4.25;1.45;;;12.70;99.90;;;;;;5075076;28;20056;-90
2022/07/08 03:11:40;;;;;;;1.52;1.38;;;13.10;99.90;;;;;;5046134;28;20127;-90
2022/07/08 03:14:09;;;;;;;3.10;1.45;;;13.10;99.90;;;;;;5062679;28;20044;-90
2022/07/08 03:16:35;;;;;;;3.53;1.50;;;13.10;99.90;;;;;;5079640;28;20173;-90
2022/07/08 03:19:08;;;;;;;3.38;1.40;;;12.80;99.90;;;;;;5063423;28;20040;-90
2022/07/08 03:21:34;;;;;;;4.88;1.75;;;13.10;99.90;;;;;;5077892;28;20389;-90
2022/07/08 03:24:05;;;;;;;2.37;1.43;;;13.10;99.90;;;;;;5087819;28;20070;-90
2022/07/08 03:26:38;;;;;;;3.42;2.15;;;12.70;99.90;;;;;;5081840;28;20173;-90
2022/07/08 03:29:12;;;;;;;6.03;1.67;;;13.00;99.90;;;;;;5086765;28;20123;-90
2022/07/08 03:31:39;;;;;;;3.53;1.80;;;13.00;99.90;;;;;;5062793;28;20048;-90
2022/07/08 03:34:05;;;;;;;3.08;2.78;;;12.90;99.90;;;;;;5062051;28;20039;-89
2022/07/08 03:36:34;;;;;;;2.30;1.53;;;12.90;99.90;;;;;;5066620;28;20041;-89
2022/07/08 03:39:00;;;;;;;6.25;2.22;;;12.30;99.90;;;;;;5055343;28;20044;-89
2022/07/08 03:41:31;;;;;;;4.53;2.50;;;12.90;99.90;;;;;;5078701;28;20394;-89
2022/07/08 03:43:59;;;;;;;3.92;2.35;;;12.80;99.90;;;;;;5061819;28;20036;-90
2022/07/08 03:46:33;;;;;;;3.38;2.50;;;12.90;99.90;;;;;;5074288;28;20036;-89
2022/07/08 03:49:09;;;;;;;2.28;1.95;;;12.90;99.90;;;;;;5045161;28;20052;-90
2022/07/08 03:51:37;;;;;;;3.60;2.47;;;12.70;99.90;;;;;;5078563;28;20125;-90
2022/07/08 03:54:12;;;;;;;2.20;1.80;;;12.80;99.90;;;;;;5061418;28;20048;-90
2022/07/08 03:56:40;;;;;;;5.13;2.60;;;12.70;99.90;;;;;;5061312;28;20059;-90
2022/07/08 03:59:06;;;;;;;4.80;1.90;;;12.70;99.90;;;;;;5076974;28;20052;-90
2022/07/08 04:01:32;;;;;;;2.67;2.28;;;12.70;99.90;;;;;;5073124;28;20477;-90
2022/07/08 04:04:07;;;;;;;7.07;2.30;;;12.60;99.90;;;;;;5045268;28;20494;-89
2022/07/08 04:06:40;;;;;;;4.25;2.58;;;12.50;99.90;;;;;;5077351;28;20094;-90
2022/07/08 04:09:24;;;;;;;3.05;2.25;;;12.70;99.90;;;;;;5044469;28;20502;-89
2022/07/08 04:11:54;;;;;;;4.80;2.63;;;12.60;99.90;;;;;;5094786;28;20043;-90
2022/07/08 04:14:20;;;;;;;1.95;1.80;;;12.60;99.90;;;;;;5044961;28;20504;-90
2022/07/08 04:16:50;;;;;;;4.03;2.50;;;12.20;99.90;;;;;;5077867;28;20040;-89
2022/07/08 04:19:25;;;;;;;3.25;2.35;;;12.60;99.90;;;;;;5045516;28;20301;-89
2022/07/08 04:21:51;;;;;;;7.70;2.75;;;12.70;99.90;;;;;;5061353;28;20059;-89
2022/07/08 04:24:20;;;;;;;6.88;3.45;;;12.60;99.90;;;;;;5044772;28;20051;-90
2022/07/08 04:26:51;;;;;;;3.70;2.63;;;12.70;99.90;;;;;;5087494;28;20512;-90
2022/07/08 04:29:19;;;;;;;2.53;2.08;;;12.70;99.90;;;;;;5077380;28;20873;-90
2022/07/08 04:31:48;;;;;;;8.98;1.95;;;12.70;99.90;;;;;;5041341;28;20067;-89
2022/07/08 04:34:21;;;;;;;4.63;3.08;;;12.40;99.90;;;;;;5042976;28;20036;-90
2022/07/08 04:36:47;;;;;;;7.78;3.08;;;12.70;99.90;;;;;;5045760;28;20044;-89
2022/07/08 04:39:15;;;;;;;3.90;2.87;;;12.80;99.90;;;;;;5052964;28;20092;-89
2022/07/08 04:41:43;;;;;;;4.28;2.53;;;12.80;99.90;;;;;;5072122;28;20753;-90
2022/07/08 04:44:11;;;;;;;2.92;2.22;;;13.60;99.90;;;;;;5043718;28;20205;-89
2022/07/08 04:46:40;;;;;;;5.10;2.30;;;12.90;99.90;;;;;;5040732;28;20406;-89
2022/07/08 04:49:08;;;;;;;3.88;2.63;;;13.00;99.90;;;;;;5052129;28;20144;-90
2022/07/08 04:51:34;;;;;;;6.32;2.30;;;13.10;99.90;;;;;;5060864;28;20085;-89
2022/07/08 04:54:02;;;;;;;5.53;2.03;;;13.10;99.90;;;;;;5060470;28;20094;-90
2022/07/08 04:56:28;;;;;;;3.22;1.70;;;13.20;99.90;;;;;;5043335;28;20806;-89
2022/07/08 04:58:56;;;;;;;4.25;2.05;;;13.30;99.90;;;;;;5079252;28;20075;-90
2022/07/08 05:01:22;;;;;;;3.22;2.72;;;13.40;99.90;;;;;;5043709;28;20040;-89
2022/07/08 05:03:50;;;;;;;3.03;2.10;;;13.50;99.90;;;;;;5073956;28;20486;-90
2022/07/08 05:06:21;;;;;;;3.60;1.90;;;13.60;99.90;;;;;;5065899;28;20036;-90
2022/07/08 05:08:47;;;;;;;3.58;2.80;;;13.70;99.90;;;;;;5044325;28;20059;-89
2022/07/08 05:11:12;;;;;;;3.30;2.47;;;13.80;99.90;;;;;;5059890;28;20048;-90
2022/07/08 05:13:38;;;;;;;5.63;1.83;;;13.20;99.90;;;;;;5059578;28;20278;-90
2022/07/08 05:16:04;;;;;;;3.63;1.77;;;13.80;99.90;;;;;;5074795;28;20036;-90
2022/07/08 05:18:41;;;;;;;3.58;2.60;;;13.20;99.90;;;;;;5042401;28;20051;-89
2022/07/08 05:21:07;;;;;;;8.88;2.10;;;13.90;99.90;;;;;;5061394;28;20052;-94
2022/07/08 05:23:33;;;;;;;3.05;1.98;;;14.00;99.90;;;;;;5057261;28;20049;-90
2022/07/08 05:25:58;;;;;;;5.68;2.00;;;14.00;99.90;;;;;;5059261;28;20139;-90
2022/07/08 05:28:33;;;;;;;7.03;1.93;;;14.00;99.90;;;;;;5093051;28;20046;-90
2022/07/08 05:30:59;;;;;;;3.05;1.75;;;14.10;99.90;;;;;;5059653;28;20297;-89
2022/07/08 05:33:27;;;;;;;3.50;1.73;;;14.20;99.90;;;;;;5077335;28;20047;-89
2022/07/08 05:36:03;;;;;;;3.70;2.40;;;13.70;99.90;;;;;;5058252;28;20076;-89
2022/07/08 05:38:31;;;;;;;4.65;2.63;;;14.30;99.90;;;;;;5047618;28;20040;-89
2022/07/08 05:41:12;;;;;;;4.85;2.55;;;14.30;99.90;;;;;;5093204;28;20070;-89
2022/07/08 05:43:41;;;;;;;3.45;1.65;;;14.50;99.90;;;;;;5071623;28;20474;-89
2022/07/08 05:46:07;;;;;;;4.18;2.50;;;14.70;99.90;;;;;;5056244;28;20123;-90
2022/07/08 05:48:32;;;;;;;1.92;1.48;;;14.90;99.90;;;;;;5058394;28;20119;-89
2022/07/08 05:51:03;;;;;;;2.83;2.00;;;15.00;99.90;;;;;;5059411;28;20054;-91
2022/07/08 05:53:32;;;;;;;2.63;1.80;;;15.20;99.90;;;;;;5054110;28;20040;-90
2022/07/08 05:56:06;;;;;;;2.13;1.45;;;15.30;99.90;;;;;;5045331;28;20060;-89
2022/07/08 05:58:40;;;;;;;4.05;1.70;;;15.50;99.90;;;;;;5076675;28;20044;-90
2022/07/08 06:01:05;;;;;;;5.00;2.20;;;15.70;99.90;;;;;;5041430;28;20079;-89
2022/07/08 06:03:34;;;;;;;3.92;1.55;;;15.80;99.90;;;;;;5068475;28;20069;-90
2022/07/08 06:06:00;;;;;;;3.80;2.47;;;15.80;99.90;;;;;;5092674;28;20099;-90
2022/07/08 06:08:28;;;;;;;4.75;2.50;;;15.80;99.90;;;;;;5059834;28;20130;-90
2022/07/08 06:11:04;;;;;;;;;;;;;;;;;;;;;
2022/07/08 06:13:30;;;;;;;5.47;2.20;;;16.10;99.90;;;;;;5092389;28;20044;-90
2022/07/08 06:15:56;;;;;;;4.38;2.30;;;16.20;99.90;;;;;;5062604;28;20051;-90
2022/07/08 06:18:21;;;;;;;7.30;1.95;;;16.30;99.90;;;;;;5053983;28;20119;-90
2022/07/08 06:20:47;;;;;;;2.15;1.58;;;16.30;99.90;;;;;;5058851;28;20079;-91
2022/07/08 06:23:13;;;;;;;3.37;1.90;;;16.20;99.90;;;;;;5058233;28;20043;-90
2022/07/08 06:25:41;;;;;;;8.68;2.35;;;16.10;99.90;;;;;;5074548;28;20423;-91
2022/07/08 06:28:07;;;;;;;3.60;2.20;;;16.00;99.90;;;;;;5056909;28;20135;-91
2022/07/08 06:30:33;;;;;;;4.78;2.15;;;15.90;99.90;;;;;;5059707;28;20076;-90
2022/07/08 06:33:02;;;;;;;2.45;1.80;;;15.90;99.90;;;;;;5076399;28;20087;-90
2022/07/08 06:35:37;;;;;;;3.47;2.30;;;15.30;99.90;;;;;;5059008;28;20127;-90
2022/07/08 06:41:56;;;;;;;3.90;1.92;;;15.90;99.90;;;;;;5093805;28;20036;-90
2022/07/08 06:45:01;;;;;;;7.60;1.80;;;15.90;99.90;;;;;;5042455;28;20490;-90
2022/07/08 06:47:26;;;;;;;3.85;1.90;;;15.90;99.90;;;;;;5077438;28;20055;-87
2022/07/08 06:49:53;;;;;;;1.83;1.40;;;15.90;99.90;;;;;;5058233;28;20040;-89
2022/07/08 06:52:21;;;;;;;5.40;1.38;;;15.90;99.90;;;;;;5025534;28;20056;-91
2022/07/08 06:54:49;;;;;;;3.92;2.03;;;16.00;99.90;;;;;;5054986;28;20114;-89
2022/07/08 06:57:21;;;;;;;4.88;2.00;;;16.00;99.90;;;;;;5056302;28;20110;-88
2022/07/08 06:59:47;;;;;;;2.88;1.52;;;16.00;99.90;;;;;;5056984;28;20097;-86
2022/07/08 07:02:13;;;;;;;3.25;2.42;;;16.00;99.90;;;;;;5075212;28;20379;-89
2022/07/08 07:04:41;;;;;;;3.83;1.95;;;16.00;99.90;;;;;;5079613;28;20070;-88
2022/07/08 07:07:07;;;;;;;2.88;1.77;;;16.00;99.90;;;;;;5092265;28;20048;-87
2022/07/08 07:09:33;;;;;;;3.03;2.30;;;16.50;99.90;;;;;;5094380;28;20054;-88
2022/07/08 07:11:58;;;;;;;2.25;2.05;;;16.20;99.90;;;;;;5057835;28;20545;-86
2022/07/08 07:14:24;;;;;;;3.30;2.17;;;16.30;99.90;;;;;;5057690;28;20047;-90
2022/07/08 07:16:50;;;;;;;3.15;1.55;;;16.30;99.90;;;;;;5057634;28;20446;-87
2022/07/08 07:19:15;;;;;;;5.50;2.50;;;16.40;99.90;;;;;;5073669;28;20044;-87
2022/07/08 07:21:41;;;;;;;3.10;1.80;;;16.50;99.90;;;;;;5058282;28;20051;-87
2022/07/08 07:24:09;;;;;;;2.50;2.22;;;16.50;99.90;;;;;;5066720;28;20044;-89
2022/07/08 07:26:36;;;;;;;1.85;1.40;;;16.50;99.90;;;;;;5078323;28;20490;-86
2022/07/08 07:29:04;;;;;;;5.93;2.05;;;16.50;99.90;;;;;;5091334;28;20074;-92
2022/07/08 07:31:29;;;;;;;3.78;1.90;;;16.60;99.90;;;;;;5091569;28;20125;-88
2022/07/08 07:33:55;;;;;;;3.17;1.80;;;16.60;99.90;;;;;;5054754;28;20501;-87
2022/07/08 07:36:21;;;;;;;5.20;1.47;;;16.60;99.90;;;;;;5061693;28;20636;-87
2022/07/08 07:38:47;;;;;;;2.83;2.00;;;16.70;99.90;;;;;;5074269;28;20044;-87
2022/07/08 07:41:13;;;;;;;1.52;1.40;;;16.70;99.90;;;;;;5054173;28;20332;-90
2022/07/08 07:43:38;;;;;;;2.33;1.87;;;16.70;99.90;;;;;;5057709;28;20481;-90
2022/07/08 07:46:04;;;;;;;3.47;1.77;;;16.70;99.90;;;;;;5049957;28;20293;-86
2022/07/08 07:48:30;;;;;;;4.47;2.65;;;16.80;99.90;;;;;;5054376;28;20517;-91
2022/07/08 07:50:55;;;;;;;3.90;1.30;;;16.80;99.90;;;;;;5048771;28;20129;-87
2022/07/08 07:53:21;;;;;;;3.17;2.73;;;16.80;99.90;;;;;;5097021;28;20051;-87
2022/07/08 07:55:47;;;;;;;3.75;2.10;;;16.80;99.90;;;;;;5067402;28;20164;-88
2022/07/08 07:58:13;;;;;;;4.53;1.83;;;16.90;99.90;;;;;;5048138;28;20057;-87
2022/07/08 08:00:38;;;;;;;2.57;1.97;;;16.90;99.90;;;;;;5085338;28;20040;-88
2022/07/08 08:03:04;;;;;;;3.77;1.97;;;16.90;99.90;;;;;;5094003;28;20053;-87
2022/07/08 08:05:32;;;;;;;3.63;1.30;;;16.90;99.90;;;;;;5044473;28;20373;-88
2022/07/08 08:07:59;;;;;;;2.72;1.88;;;16.80;99.90;;;;;;5041766;28;20122;-87
2022/07/08 08:10:25;;;;;;;4.97;1.70;;;16.90;99.90;;;;;;5058113;28;20048;-89
2022/07/08 08:12:50;;;;;;;4.20;2.67;;;16.90;99.90;;;;;;5045465;28;20055;-88
2022/07/08 08:15:16;;;;;;;3.57;1.80;;;16.90;99.90;;;;;;5060785;28;20439;-88
2022/07/08 08:17:42;;;;;;;2.08;1.48;;;17.00;99.90;;;;;;5041534;28;20501;-89
2022/07/08 08:20:11;;;;;;;2.90;1.45;;;17.10;99.90;;;;;;5061469;28;20090;-89
2022/07/08 08:22:37;;;;;;;3.22;2.50;;;17.10;99.90;;;;;;5075779;28;20028;-89
2022/07/08 08:25:03;;;;;;;2.50;1.65;;;17.10;99.90;;;;;;5060533;28;20056;-87
2022/07/08 08:27:29;;;;;;;2.30;1.77;;;17.10;99.90;;;;;;5044199;28;20421;-89
2022/07/08 08:29:55;;;;;;;4.93;2.78;;;17.20;99.90;;;;;;5043080;28;20055;-88
2022/07/08 08:32:21;;;;;;;2.63;1.65;;;17.20;99.90;;;;;;5077760;28;20040;-87
2022/07/08 08:34:46;;;;;;;5.38;2.20;;;17.20;99.90;;;;;;5038240;28;20045;-87
2022/07/08 08:37:13;;;;;;;2.80;2.50;;;17.20;99.90;;;;;;5083584;28;20461;-87
2022/07/08 08:39:39;;;;;;;3.50;1.52;;;17.20;99.90;;;;;;5047301;28;20055;-87
2022/07/08 08:42:06;;;;;;;8.82;2.47;;;17.30;99.90;;;;;;5043761;28;20044;-87
2022/07/08 08:44:32;;;;;;;4.13;1.98;;;17.30;99.90;;;;;;5078180;28;20047;-83
2022/07/08 08:47:02;;;;;;;2.80;1.60;;;17.30;99.90;;;;;;5069077;28;20036;-88
2022/07/08 08:49:33;;;;;;;4.22;1.70;;;17.40;99.90;;;;;;5077682;28;20141;-89
2022/07/08 08:52:01;;;;;;;3.15;1.50;;;17.40;99.90;;;;;;5080769;28;20154;-87
2022/07/08 08:54:30;;;;;;;6.22;2.50;;;17.50;99.90;;;;;;5056984;28;20047;-86
2022/07/08 08:56:57;;;;;;;1.98;1.55;;;17.50;99.90;;;;;;5067530;28;20082;-87
2022/07/08 08:59:23;;;;;;;3.97;1.70;;;17.50;99.90;;;;;;5065158;28;20052;-86
2022/07/08 09:01:49;;;;;;;6.22;2.38;;;17.50;99.90;;;;;;5043549;28;20109;-87
2022/07/08 09:04:16;;;;;;;4.10;1.88;;;17.50;99.90;;;;;;5060695;28;20124;-87
2022/07/08 09:06:42;;;;;;;10.75;2.20;;;17.60;99.90;;;;;;5059999;28;20048;-89
2022/07/08 09:09:07;;;;;;;3.90;1.90;;;17.60;99.90;;;;;;5060246;28;20047;-86
2022/07/08 09:11:34;;;;;;;4.25;1.80;;;17.60;99.90;;;;;;5076921;28;20485;-85
2022/07/08 09:14:22;;;;;;;2.55;1.90;;;17.70;99.90;;;;;;5073791;28;20051;-88
2022/07/08 09:17:12;;;;;;;4.72;2.13;;;17.70;99.90;;;;;;5094161;28;20044;-87
2022/07/08 09:19:43;;;;;;;4.03;2.67;;;17.70;99.90;;;;;;5088369;28;20051;-86
2022/07/08 09:22:09;;;;;;;6.53;2.75;;;17.80;99.90;;;;;;5081188;28;20124;-86
2022/07/08 09:24:38;;;;;;;5.00;1.85;;;17.80;99.90;;;;;;5051274;28;20501;-86
2022/07/08 09:30:39;;;;;;;1.75;1.65;;;17.80;99.90;;;;;;5073470;28;20521;-86
2022/07/08 09:33:04;;;;;;;2.60;1.73;;;17.90;99.90;;;;;;5059080;28;20051;-86
2022/07/08 09:35:39;;;;;;;6.63;1.67;;;17.90;99.90;;;;;;5078376;28;20055;-86
2022/07/08 09:38:08;;;;;;;2.25;1.30;;;17.90;99.90;;;;;;5060624;28;20032;-86
2022/07/08 09:40:35;;;;;;;2.08;1.92;;;18.00;99.90;;;;;;5081997;28;20566;-86
2022/07/08 09:47:13;;;;;;;5.07;2.00;;;18.20;99.90;;;;;;5052854;28;20047;-86
2022/07/08 09:49:44;;;;;;;5.82;1.83;;;18.20;99.90;;;;;;5021834;28;20044;-86
2022/07/08 09:52:11;;;;;;;2.97;2.10;;;18.20;99.90;;;;;;5073317;28;20048;-85
2022/07/08 09:54:37;;;;;;;2.60;1.75;;;18.30;99.90;;;;;;5082501;28;20078;-86
2022/07/08 09:57:05;;;;;;;3.38;1.73;;;18.20;99.90;;;;;;5073488;28;20054;-85
2022/07/08 09:59:33;;;;;;;4.38;1.90;;;18.30;99.90;;;;;;5059564;28;20474;-86
2022/07/08 10:01:59;;;;;;;2.85;2.00;;;18.30;99.90;;;;;;5079425;28;20474;-87
2022/07/08 10:04:26;;;;;;;2.20;2.00;;;18.20;99.90;;;;;;5056324;28;20044;-87
2022/07/08 10:06:53;;;;;;;6.53;1.80;;;18.30;99.90;;;;;;5074232;28;20178;-86
2022/07/08 10:09:20;;;;;;;3.22;1.90;;;18.30;99.90;;;;;;5042807;28;20059;-87
2022/07/08 10:11:47;;;;;;;1.60;1.50;;;18.20;99.90;;;;;;5075678;28;20055;-87
2022/07/08 10:14:13;;;;;;;3.70;1.67;;;18.20;99.90;;;;;;5082944;28;20050;-87
2022/07/08 10:16:40;;;;;;;4.20;2.30;;;18.20;99.90;;;;;;5073737;28;20054;-86
2022/07/08 10:19:13;;;;;;;2.65;1.63;;;18.20;99.90;;;;;;5058206;28;20532;-87
2022/07/08 10:21:41;;;;;;;6.22;2.50;;;18.20;99.90;;;;;;5074179;28;20115;-88
2022/07/08 10:24:10;;;;;;;2.60;1.42;;;18.30;99.90;;;;;;5056558;28;20090;-87
2022/07/08 10:26:40;;;;;;;5.22;1.70;;;18.30;99.90;;;;;;5074431;28;20540;-86
2022/07/08 10:29:11;;;;;;;2.90;1.30;;;18.30;99.90;;;;;;5073977;28;20382;-87
2022/07/08 10:31:51;;;;;;;2.28;2.13;;;18.40;99.90;;;;;;5075271;28;20048;-87
2022/07/08 10:34:19;;;;;;;2.50;1.75;;;18.40;99.90;;;;;;5074303;28;20067;-86
2022/07/08 10:36:50;;;;;;;8.35;2.83;;;18.40;99.90;;;;;;5077951;28;20043;-86
2022/07/08 10:39:27;;;;;;;5.78;1.80;;;18.30;99.90;;;;;;5086832;28;20490;-91
2022/07/08 10:42:05;;;;;;;3.78;1.83;;;18.30;99.90;;;;;;5064187;28;20122;-91
2022/07/08 10:44:46;;;;;;;3.03;1.75;;;18.40;99.90;;;;;;5072405;28;20052;-86
2022/07/08 10:47:17;;;;;;;7.50;2.67;;;18.40;99.90;;;;;;5055025;28;20045;-87
2022/07/08 10:49:50;;;;;;;5.88;2.13;;;18.40;99.90;;;;;;5089542;28;20076;-85
2022/07/08 10:52:20;;;;;;;1.73;1.55;;;18.50;99.90;;;;;;5078473;28;20136;-85
2022/07/08 10:54:46;;;;;;;2.47;1.50;;;18.60;99.90;;;;;;5094030;28;20507;-87
2022/07/08 10:57:16;;;;;;;2.05;1.55;;;18.70;99.90;;;;;;5065915;28;20054;-88
2022/07/08 11:03:12;;;;;;;4.80;2.10;;;18.90;99.90;;;;;;5093751;28;20508;-92
2022/07/08 11:09:24;;;;;;;6.07;2.50;;;19.20;99.90;;;;;;5093679;28;20049;-89
2022/07/08 11:11:50;;;;;;;4.30;1.95;;;19.30;99.90;;;;;;5092728;28;20367;-89
2022/07/08 11:14:16;;;;;;;6.95;1.85;;;19.40;99.90;;;;;;5042732;28;20173;-89
2022/07/08 11:17:05;;;;;;;3.83;2.00;;;19.60;99.90;;;;;;5059878;28;20063;-89
2022/07/08 11:23:11;;;;;;;3.17;1.67;;;19.70;99.90;;;;;;5079651;28;20039;-90
2022/07/08 11:25:37;;;;;;;2.67;1.88;;;19.80;99.90;;;;;;5057632;28;20048;-91
2022/07/08 11:28:18;;;;;;;1.75;1.52;;;19.90;99.90;;;;;;5058258;28;20070;-90
2022/07/08 11:30:43;;;;;;;1.90;1.70;;;19.80;99.90;;;;;;5045789;28;20434;-91
2022/07/08 11:33:09;;;;;;;4.45;2.88;;;19.90;99.90;;;;;;5045186;28;20075;-92
2022/07/08 11:35:38;;;;;;;6.93;2.05;;;20.00;99.90;;;;;;5028750;28;20040;-86
2022/07/08 11:38:04;;;;;;;3.03;2.53;;;20.20;99.90;;;;;;5056635;28;20052;-89
2022/07/08 11:40:41;;;;;;;1.67;1.20;;;20.20;99.90;;;;;;5062560;28;20447;-88
2022/07/08 11:43:13;;;;;;;4.30;1.83;;;20.30;99.90;;;;;;5079016;28;20047;-90
2022/07/08 11:45:38;;;;;;;2.67;1.42;;;20.30;99.90;;;;;;5062915;28;20043;-85
2022/07/08 11:48:05;;;;;;;3.80;2.10;;;20.20;99.90;;;;;;5066537;28;20050;-87
2022/07/08 11:50:31;;;;;;;1.85;1.40;;;20.40;99.90;;;;;;5029381;28;20078;-87
2022/07/08 11:52:57;;;;;;;2.83;2.15;;;20.60;99.90;;;;;;5096121;28;20044;-89
2022/07/08 11:55:22;;;;;;;4.90;3.60;;;20.70;99.90;;;;;;5078978;28;20043;-89
2022/07/08 11:57:48;;;;;;;5.80;4.13;;;20.70;99.90;;;;;;5044599;28;20414;-89
2022/07/08 12:00:14;;;;;;;3.22;2.45;;;20.70;99.90;;;;;;5061901;28;20044;-90
2022/07/08 12:02:40;;;;;;;2.47;2.10;;;20.70;99.90;;;;;;5044871;28;20040;-92
2022/07/08 12:05:10;;;;;;;2.47;2.03;;;20.70;99.90;;;;;;5044418;28;20071;-92
2022/07/08 12:07:37;;;;;;;3.67;1.70;;;20.90;99.90;;;;;;5093835;28;20046;-88
2022/07/08 12:10:05;;;;;;;5.55;3.20;;;21.00;99.90;;;;;;5058990;28;20120;-90
2022/07/08 12:12:35;;;;;;;3.67;1.90;;;21.10;99.90;;;;;;5074253;28;20052;-85
2022/07/08 12:15:11;;;;;;;5.40;2.20;;;21.00;99.90;;;;;;5040994;28;20051;-85
2022/07/08 12:17:36;;;;;;;1.77;1.50;;;21.00;99.90;;;;;;5088795;28;20109;-85
2022/07/08 12:20:02;;;;;;;1.88;1.77;;;20.90;99.90;;;;;;5086446;28;20037;-84
2022/07/08 12:22:46;;;;;;;3.10;2.15;;;20.90;99.90;;;;;;5075174;28;20513;-86
2022/07/08 12:51:31;;;;;;;4.43;2.50;;;21.30;99.90;;;;;;5094867;28;20032;-86
2022/07/08 12:57:38;;;;;;;4.57;1.75;;;21.70;99.90;;;;;;5089410;28;20058;-86
2022/07/08 13:00:41;;;;;;;1.88;1.52;;;21.60;99.90;;;;;;5095887;28;20048;-86
2022/07/08 13:03:08;;;;;;;8.80;1.75;;;21.70;99.90;;;;;;5094835;28;20044;-87
2022/07/08 13:05:34;;;;;;;5.75;2.45;;;21.80;99.90;;;;;;5057658;28;20051;-87
2022/07/08 13:07:59;;;;;;;2.22;1.42;;;21.90;99.90;;;;;;5088923;28;20052;-87
2022/07/08 13:10:25;;;;;;;2.17;1.95;;;22.00;99.90;;;;;;5077396;28;20166;-87
2022/07/08 13:12:51;;;;;;;9.25;2.33;;;22.00;99.90;;;;;;5093174;28;20044;-92
2022/07/08 13:15:17;;;;;;;3.15;2.03;;;22.10;99.90;;;;;;5058143;28;20122;-89
2022/07/08 13:17:45;;;;;;;2.67;2.03;;;22.20;99.90;;;;;;5056328;28;20051;-87
2022/07/08 13:20:11;;;;;;;2.60;1.90;;;22.20;99.90;;;;;;5076326;28;20056;-87
2022/07/08 13:22:37;;;;;;;2.25;1.85;;;21.50;99.90;;;;;;5060828;28;20047;-87
2022/07/08 13:25:03;;;;;;;2.20;1.90;;;22.30;99.90;;;;;;5090870;28;20098;-87
2022/07/08 13:27:29;;;;;;;4.50;1.80;;;22.30;99.90;;;;;;5073508;28;20486;-88
2022/07/08 13:29:56;;;;;;;4.07;1.80;;;22.30;99.90;;;;;;5093555;28;20385;-87
2022/07/08 13:32:23;;;;;;;2.00;1.67;;;22.40;99.90;;;;;;5043687;28;20044;-88
2022/07/08 13:34:49;;;;;;;1.63;1.52;;;22.30;99.90;;;;;;5092394;28;20494;-86
2022/07/08 13:37:15;;;;;;;4.63;1.70;;;22.30;99.90;;;;;;5077156;28;20127;-87
2022/07/08 13:39:40;;;;;;;6.20;1.80;;;22.20;99.90;;;;;;5079693;28;20050;-85
2022/07/08 13:42:06;;;;;;;2.45;1.45;;;22.10;99.90;;;;;;5075758;28;20044;-86
2022/07/08 13:44:32;;;;;;;4.10;2.08;;;22.10;99.90;;;;;;5073505;28;20139;-90
2022/07/08 13:46:57;;;;;;;2.53;1.55;;;22.10;99.90;;;;;;5043078;28;20044;-86
2022/07/08 13:49:23;;;;;;;1.98;1.85;;;22.20;99.90;;;;;;5094261;28;20131;-85
2022/07/08 13:51:49;;;;;;;8.43;5.60;;;22.10;99.90;;;;;;5093517;28;20076;-85
2022/07/08 13:54:15;;;;;;;;;;;22.00;99.90;;;;;;5060091;28;20078;-86
2022/07/08 14:00:31;;;;;;;3.70;2.22;;;21.90;99.90;;;;;;5074161;28;20036;-86